CIC weather

Chico Municipal Airport
Chico, California, United States

Public forecast

Using degrees Fahrenheit for public forecast. Weather courtesy of forecast.io.

Current aviation weather report (METAR) for Chico Municipal Airport

Retrieved 2020/03/31 21:47 UTC (1 hour ago):

KCIC 312147Z 14014KT 40SM BKN044 BKN080 20/09 A3009

Closest aviation forecast (TAF) to Chico Municipal Airport

Closest forecast is Red Bluff Municipal Airport, 28.0 nm (51.8 km) NW. Retrieved 2020/03/31 18:34 UTC (4 hours ago):

TAF KRBL 311732Z 3118/0118 17010KT P6SM SCT030 BKN080 FM010300 VRB03KT P6SM BKN050 FM010600 35008KT P6SM SCT250 FM011600 34011G22KT P6SM SCT250